Portada
METAR-TAF:

METAR-TAF

Aeroports :

Fort-de-France, Martinica

latitud: 14-36N, longitud: 061-00W, altitud: 5 m

Observació

L'informe es va fer fa 15 minuts, a les 03:00 UTC
Vent 8 kt del Est
Temperatura 25°C
Humitat 69%
Pressió 1016 hPa
Visibilitat 10 km o més
Núvols disperses a una alçada de 3800 ft

METAR: TFFF 270300Z AUTO 08008KT 9999 SCT038 25/19 Q1016 NOSIG

Hora: 23:15 (03:15 UTC)

Pronòstic

L'informe es va fer fa 3 hores i 45 minuts, a les 23:30 UTC
Pronòstic vàlid del 27 a les 00 UTC al 27 a les 24 UTC
Vent 10 kt del Est
Visibilitat 10 km o més
Núvols disperses a una alçada de 3500 ft
Probabilitat 30% :
Temporalment
l' 27 a les 14 UTC al 27 a les 20 UTC
Vent 15 kt del Est amb ràfegues de 25 kt

TAF: TFFF 262330Z 2700/2724 09010KT 9999 SCT035 PROB30 TEMPO 2714/2720 09015G25KT

Observacions i pronòstics meteorològics de més de 4000 aeroports (METAR i TAF).

Les estacions disponibles són els punts grocs i vermells al mapa.

Posi el ratolí al punt desitjat per veure el nom de l'estació.

Feu clic per veure les observacions i els pronòstics meteorològics.

Per canviar el mapa: feu clic els botons verds amb una creu de color negre per apropar; al botó verd amb un guió per allunyar la imatge; o en les fletxes verdes per a mapes adjacents.


METAR-TAF: